sensor_id;sensor_type;location;lat;lon;timestamp;P1;durP1;ratioP1;P2;durP2;ratioP2
20721;SDS011;10522;52.198;9.890;2023-02-14T00:00:20;23.10;;;13.10;;
20721;SDS011;10522;52.198;9.890;2023-02-14T00:02:46;20.77;;;11.50;;
20721;SDS011;10522;52.198;9.890;2023-02-14T00:05:12;21.13;;;12.13;;
20721;SDS011;10522;52.198;9.890;2023-02-14T00:07:38;24.33;;;12.07;;
20721;SDS011;10522;52.198;9.890;2023-02-14T00:10:03;23.73;;;12.43;;
20721;SDS011;10522;52.198;9.890;2023-02-14T00:12:29;23.00;;;13.37;;
20721;SDS011;10522;52.198;9.890;2023-02-14T00:14:55;24.70;;;13.03;;
20721;SDS011;10522;52.198;9.890;2023-02-14T00:17:39;22.47;;;12.50;;
20721;SDS011;10522;52.198;9.890;2023-02-14T00:20:05;25.20;;;13.70;;
20721;SDS011;10522;52.198;9.890;2023-02-14T00:22:31;22.73;;;12.93;;
20721;SDS011;10522;52.198;9.890;2023-02-14T00:24:56;23.83;;;12.13;;
20721;SDS011;10522;52.198;9.890;2023-02-14T00:27:22;23.70;;;12.90;;
20721;SDS011;10522;52.198;9.890;2023-02-14T00:29:48;23.23;;;12.70;;
20721;SDS011;10522;52.198;9.890;2023-02-14T00:32:13;22.97;;;12.60;;
20721;SDS011;10522;52.198;9.890;2023-02-14T00:34:39;23.40;;;13.13;;
20721;SDS011;10522;52.198;9.890;2023-02-14T00:37:04;23.00;;;12.93;;
20721;SDS011;10522;52.198;9.890;2023-02-14T00:39:30;23.43;;;13.07;;
20721;SDS011;10522;52.198;9.890;2023-02-14T00:41:56;23.73;;;12.53;;
20721;SDS011;10522;52.198;9.890;2023-02-14T00:44:21;21.93;;;13.07;;
20721;SDS011;10522;52.198;9.890;2023-02-14T00:46:47;19.17;;;10.97;;
20721;SDS011;10522;52.198;9.890;2023-02-14T00:49:13;23.83;;;11.77;;
20721;SDS011;10522;52.198;9.890;2023-02-14T00:51:39;21.23;;;11.97;;
20721;SDS011;10522;52.198;9.890;2023-02-14T00:54:05;25.73;;;12.17;;
20721;SDS011;10522;52.198;9.890;2023-02-14T00:56:32;20.87;;;12.23;;
20721;SDS011;10522;52.198;9.890;2023-02-14T00:58:57;21.37;;;12.53;;
20721;SDS011;10522;52.198;9.890;2023-02-14T01:01:23;19.07;;;11.47;;
20721;SDS011;10522;52.198;9.890;2023-02-14T01:03:49;20.80;;;12.13;;
20721;SDS011;10522;52.198;9.890;2023-02-14T01:06:14;19.97;;;11.33;;
20721;SDS011;10522;52.198;9.890;2023-02-14T01:08:40;22.53;;;12.80;;
20721;SDS011;10522;52.198;9.890;2023-02-14T01:11:09;19.40;;;10.30;;
20721;SDS011;10522;52.198;9.890;2023-02-14T01:13:40;19.90;;;11.40;;
20721;SDS011;10522;52.198;9.890;2023-02-14T01:16:08;23.07;;;12.33;;
20721;SDS011;10522;52.198;9.890;2023-02-14T01:18:36;22.17;;;11.03;;
20721;SDS011;10522;52.198;9.890;2023-02-14T01:21:16;18.53;;;11.07;;
20721;SDS011;10522;52.198;9.890;2023-02-14T01:23:45;20.57;;;10.27;;
20721;SDS011;10522;52.198;9.890;2023-02-14T01:26:11;18.33;;;9.73;;
20721;SDS011;10522;52.198;9.890;2023-02-14T01:28:37;20.63;;;10.93;;
20721;SDS011;10522;52.198;9.890;2023-02-14T01:33:33;17.77;;;9.77;;
20721;SDS011;10522;52.198;9.890;2023-02-14T01:35:58;20.53;;;11.50;;
20721;SDS011;10522;52.198;9.890;2023-02-14T01:38:24;21.30;;;11.20;;
20721;SDS011;10522;52.198;9.890;2023-02-14T01:40:50;18.57;;;10.80;;
20721;SDS011;10522;52.198;9.890;2023-02-14T01:43:16;18.37;;;10.07;;
20721;SDS011;10522;52.198;9.890;2023-02-14T01:45:41;18.70;;;10.20;;
20721;SDS011;10522;52.198;9.890;2023-02-14T01:48:07;20.87;;;10.97;;
20721;SDS011;10522;52.198;9.890;2023-02-14T01:50:35;17.23;;;10.27;;
20721;SDS011;10522;52.198;9.890;2023-02-14T01:53:06;19.03;;;10.17;;
20721;SDS011;10522;52.198;9.890;2023-02-14T01:55:35;16.30;;;9.83;;
20721;SDS011;10522;52.198;9.890;2023-02-14T01:58:09;16.60;;;9.60;;
20721;SDS011;10522;52.198;9.890;2023-02-14T02:00:39;18.50;;;9.80;;
20721;SDS011;10522;52.198;9.890;2023-02-14T02:03:31;18.43;;;9.67;;
20721;SDS011;10522;52.198;9.890;2023-02-14T02:06:07;19.00;;;10.43;;
20721;SDS011;10522;52.198;9.890;2023-02-14T02:08:34;25.13;;;9.57;;
20721;SDS011;10522;52.198;9.890;2023-02-14T02:11:05;114.67;;;12.10;;
20721;SDS011;10522;52.198;9.890;2023-02-14T02:13:30;102.53;;;10.77;;
20721;SDS011;10522;52.198;9.890;2023-02-14T02:26:29;40.43;;;7.63;;
20721;SDS011;10522;52.198;9.890;2023-02-14T02:40:27;27.03;;;8.73;;
20721;SDS011;10522;52.198;9.890;2023-02-14T02:46:15;15.33;;;9.10;;
20721;SDS011;10522;52.198;9.890;2023-02-14T02:58:30;17.37;;;9.33;;
20721;SDS011;10522;52.198;9.890;2023-02-14T03:00:59;15.13;;;9.73;;
20721;SDS011;10522;52.198;9.890;2023-02-14T03:03:27;16.73;;;9.10;;
20721;SDS011;10522;52.198;9.890;2023-02-14T03:06:14;17.67;;;9.03;;
20721;SDS011;10522;52.198;9.890;2023-02-14T03:08:40;18.60;;;8.37;;
20721;SDS011;10522;52.198;9.890;2023-02-14T03:11:05;25.87;;;9.10;;
20721;SDS011;10522;52.198;9.890;2023-02-14T03:16:32;19.73;;;8.30;;
20721;SDS011;10522;52.198;9.890;2023-02-14T03:21:58;31.70;;;9.30;;
20721;SDS011;10522;52.198;9.890;2023-02-14T03:24:31;27.47;;;9.50;;
20721;SDS011;10522;52.198;9.890;2023-02-14T03:27:23;24.57;;;9.43;;
20721;SDS011;10522;52.198;9.890;2023-02-14T03:32:36;30.13;;;9.17;;
20721;SDS011;10522;52.198;9.890;2023-02-14T03:35:19;24.70;;;9.23;;
20721;SDS011;10522;52.198;9.890;2023-02-14T03:37:54;15.47;;;8.20;;
20721;SDS011;10522;52.198;9.890;2023-02-14T03:40:43;17.30;;;8.70;;
20721;SDS011;10522;52.198;9.890;2023-02-14T03:43:35;22.13;;;8.73;;
20721;SDS011;10522;52.198;9.890;2023-02-14T03:46:07;14.17;;;8.63;;
20721;SDS011;10522;52.198;9.890;2023-02-14T03:48:37;18.40;;;8.07;;
20721;SDS011;10522;52.198;9.890;2023-02-14T03:51:05;30.97;;;7.30;;
20721;SDS011;10522;52.198;9.890;2023-02-14T03:53:35;18.90;;;7.30;;
20721;SDS011;10522;52.198;9.890;2023-02-14T03:56:14;21.53;;;7.80;;
20721;SDS011;10522;52.198;9.890;2023-02-14T03:58:47;38.37;;;7.53;;
20721;SDS011;10522;52.198;9.890;2023-02-14T04:01:25;28.73;;;9.67;;
20721;SDS011;10522;52.198;9.890;2023-02-14T04:03:59;18.47;;;7.37;;
20721;SDS011;10522;52.198;9.890;2023-02-14T04:06:25;18.77;;;6.93;;
20721;SDS011;10522;52.198;9.890;2023-02-14T04:08:51;20.23;;;6.50;;
20721;SDS011;10522;52.198;9.890;2023-02-14T04:11:17;33.70;;;7.00;;
20721;SDS011;10522;52.198;9.890;2023-02-14T04:13:42;40.87;;;6.73;;
20721;SDS011;10522;52.198;9.890;2023-02-14T04:16:08;26.93;;;6.47;;
20721;SDS011;10522;52.198;9.890;2023-02-14T04:18:33;52.53;;;7.53;;
20721;SDS011;10522;52.198;9.890;2023-02-14T04:21:18;57.20;;;8.23;;
20721;SDS011;10522;52.198;9.890;2023-02-14T04:23:43;30.53;;;6.73;;
20721;SDS011;10522;52.198;9.890;2023-02-14T04:26:09;23.10;;;7.70;;
20721;SDS011;10522;52.198;9.890;2023-02-14T04:28:34;28.40;;;7.73;;
20721;SDS011;10522;52.198;9.890;2023-02-14T04:31:01;20.90;;;6.83;;
20721;SDS011;10522;52.198;9.890;2023-02-14T04:33:28;35.03;;;7.43;;
20721;SDS011;10522;52.198;9.890;2023-02-14T04:35:53;38.33;;;6.90;;
20721;SDS011;10522;52.198;9.890;2023-02-14T04:38:19;32.70;;;6.70;;
20721;SDS011;10522;52.198;9.890;2023-02-14T04:40:46;10.23;;;6.53;;
20721;SDS011;10522;52.198;9.890;2023-02-14T04:43:16;19.83;;;6.73;;
20721;SDS011;10522;52.198;9.890;2023-02-14T04:45:42;13.70;;;6.10;;
20721;SDS011;10522;52.198;9.890;2023-02-14T04:48:08;11.20;;;5.93;;
20721;SDS011;10522;52.198;9.890;2023-02-14T04:50:33;34.33;;;6.40;;
20721;SDS011;10522;52.198;9.890;2023-02-14T04:52:59;16.73;;;6.47;;
20721;SDS011;10522;52.198;9.890;2023-02-14T04:55:24;18.17;;;6.10;;
20721;SDS011;10522;52.198;9.890;2023-02-14T04:57:50;23.70;;;6.30;;
20721;SDS011;10522;52.198;9.890;2023-02-14T05:00:16;19.43;;;7.23;;
20721;SDS011;10522;52.198;9.890;2023-02-14T05:02:42;39.87;;;8.57;;
20721;SDS011;10522;52.198;9.890;2023-02-14T05:05:07;34.53;;;8.23;;
20721;SDS011;10522;52.198;9.890;2023-02-14T05:07:33;44.23;;;8.50;;
20721;SDS011;10522;52.198;9.890;2023-02-14T05:09:59;24.57;;;7.83;;
20721;SDS011;10522;52.198;9.890;2023-02-14T05:12:24;16.23;;;7.03;;
20721;SDS011;10522;52.198;9.890;2023-02-14T05:14:50;38.20;;;7.53;;
20721;SDS011;10522;52.198;9.890;2023-02-14T05:17:16;32.03;;;6.93;;
20721;SDS011;10522;52.198;9.890;2023-02-14T05:19:41;22.00;;;6.57;;
20721;SDS011;10522;52.198;9.890;2023-02-14T05:22:07;37.83;;;8.03;;
20721;SDS011;10522;52.198;9.890;2023-02-14T05:24:32;19.43;;;7.23;;
20721;SDS011;10522;52.198;9.890;2023-02-14T05:26:58;21.23;;;7.07;;
20721;SDS011;10522;52.198;9.890;2023-02-14T05:29:24;31.70;;;8.67;;
20721;SDS011;10522;52.198;9.890;2023-02-14T05:31:49;15.83;;;6.93;;
20721;SDS011;10522;52.198;9.890;2023-02-14T05:34:15;18.87;;;7.47;;
20721;SDS011;10522;52.198;9.890;2023-02-14T05:36:41;18.83;;;6.60;;
20721;SDS011;10522;52.198;9.890;2023-02-14T05:39:06;21.07;;;6.63;;
20721;SDS011;10522;52.198;9.890;2023-02-14T05:41:32;25.07;;;6.83;;
20721;SDS011;10522;52.198;9.890;2023-02-14T05:43:57;14.87;;;6.37;;
20721;SDS011;10522;52.198;9.890;2023-02-14T05:46:23;27.50;;;6.23;;
20721;SDS011;10522;52.198;9.890;2023-02-14T05:48:49;20.03;;;6.53;;
20721;SDS011;10522;52.198;9.890;2023-02-14T05:51:14;20.87;;;7.20;;
20721;SDS011;10522;52.198;9.890;2023-02-14T05:53:40;27.60;;;6.90;;
20721;SDS011;10522;52.198;9.890;2023-02-14T05:56:05;16.77;;;6.53;;
20721;SDS011;10522;52.198;9.890;2023-02-14T05:58:32;17.73;;;7.83;;
20721;SDS011;10522;52.198;9.890;2023-02-14T06:00:57;11.37;;;6.20;;
20721;SDS011;10522;52.198;9.890;2023-02-14T06:03:24;15.93;;;6.17;;
20721;SDS011;10522;52.198;9.890;2023-02-14T06:05:49;9.07;;;5.53;;
20721;SDS011;10522;52.198;9.890;2023-02-14T06:08:15;18.83;;;6.60;;
20721;SDS011;10522;52.198;9.890;2023-02-14T06:10:41;17.17;;;5.93;;
20721;SDS011;10522;52.198;9.890;2023-02-14T06:13:06;17.23;;;6.33;;
20721;SDS011;10522;52.198;9.890;2023-02-14T06:15:36;25.43;;;7.43;;
20721;SDS011;10522;52.198;9.890;2023-02-14T06:18:02;16.37;;;6.77;;
20721;SDS011;10522;52.198;9.890;2023-02-14T06:20:29;22.57;;;7.67;;
20721;SDS011;10522;52.198;9.890;2023-02-14T06:22:55;18.80;;;7.40;;
20721;SDS011;10522;52.198;9.890;2023-02-14T06:25:21;20.53;;;7.77;;
20721;SDS011;10522;52.198;9.890;2023-02-14T06:27:48;14.23;;;7.27;;
20721;SDS011;10522;52.198;9.890;2023-02-14T06:30:14;16.20;;;7.23;;
20721;SDS011;10522;52.198;9.890;2023-02-14T06:32:40;13.73;;;7.13;;
20721;SDS011;10522;52.198;9.890;2023-02-14T06:35:06;14.23;;;7.43;;
20721;SDS011;10522;52.198;9.890;2023-02-14T06:37:32;13.03;;;7.17;;
20721;SDS011;10522;52.198;9.890;2023-02-14T06:39:58;12.37;;;6.53;;
20721;SDS011;10522;52.198;9.890;2023-02-14T06:42:25;15.33;;;7.20;;
20721;SDS011;10522;52.198;9.890;2023-02-14T06:44:50;14.40;;;7.10;;
20721;SDS011;10522;52.198;9.890;2023-02-14T06:50:00;14.83;;;7.27;;
20721;SDS011;10522;52.198;9.890;2023-02-14T06:52:29;13.10;;;7.47;;
20721;SDS011;10522;52.198;9.890;2023-02-14T06:54:55;11.60;;;6.83;;
20721;SDS011;10522;52.198;9.890;2023-02-14T06:57:21;11.73;;;6.57;;
20721;SDS011;10522;52.198;9.890;2023-02-14T06:59:47;10.63;;;6.57;;
20721;SDS011;10522;52.198;9.890;2023-02-14T07:02:12;9.97;;;5.73;;
20721;SDS011;10522;52.198;9.890;2023-02-14T07:04:38;9.83;;;6.53;;
20721;SDS011;10522;52.198;9.890;2023-02-14T07:07:03;8.60;;;5.60;;
20721;SDS011;10522;52.198;9.890;2023-02-14T07:09:29;10.43;;;6.40;;
20721;SDS011;10522;52.198;9.890;2023-02-14T07:11:55;10.43;;;6.43;;
20721;SDS011;10522;52.198;9.890;2023-02-14T07:14:20;8.27;;;5.80;;
20721;SDS011;10522;52.198;9.890;2023-02-14T07:16:46;9.80;;;5.93;;
20721;SDS011;10522;52.198;9.890;2023-02-14T07:19:11;10.57;;;6.57;;
20721;SDS011;10522;52.198;9.890;2023-02-14T07:21:37;10.43;;;6.10;;
20721;SDS011;10522;52.198;9.890;2023-02-14T07:24:02;9.47;;;6.20;;
20721;SDS011;10522;52.198;9.890;2023-02-14T07:26:28;11.13;;;6.27;;
20721;SDS011;10522;52.198;9.890;2023-02-14T07:28:53;10.30;;;6.67;;
20721;SDS011;10522;52.198;9.890;2023-02-14T07:31:19;9.17;;;5.90;;
20721;SDS011;10522;52.198;9.890;2023-02-14T07:33:47;9.13;;;6.37;;
20721;SDS011;10522;52.198;9.890;2023-02-14T07:36:13;9.57;;;6.20;;
20721;SDS011;10522;52.198;9.890;2023-02-14T07:38:39;11.90;;;5.97;;
20721;SDS011;10522;52.198;9.890;2023-02-14T07:41:04;10.03;;;6.13;;
20721;SDS011;10522;52.198;9.890;2023-02-14T07:43:30;9.17;;;6.60;;
20721;SDS011;10522;52.198;9.890;2023-02-14T07:45:58;9.67;;;6.20;;
20721;SDS011;10522;52.198;9.890;2023-02-14T07:48:24;10.13;;;5.67;;
20721;SDS011;10522;52.198;9.890;2023-02-14T07:50:50;9.77;;;6.17;;
20721;SDS011;10522;52.198;9.890;2023-02-14T07:53:16;11.87;;;6.13;;
20721;SDS011;10522;52.198;9.890;2023-02-14T07:55:42;10.47;;;6.10;;
20721;SDS011;10522;52.198;9.890;2023-02-14T07:58:12;10.23;;;6.47;;
20721;SDS011;10522;52.198;9.890;2023-02-14T08:00:37;9.67;;;6.10;;
20721;SDS011;10522;52.198;9.890;2023-02-14T08:03:03;11.27;;;6.97;;
20721;SDS011;10522;52.198;9.890;2023-02-14T08:05:28;11.07;;;6.67;;
20721;SDS011;10522;52.198;9.890;2023-02-14T08:07:54;12.77;;;6.97;;
20721;SDS011;10522;52.198;9.890;2023-02-14T08:10:20;9.90;;;6.73;;
20721;SDS011;10522;52.198;9.890;2023-02-14T08:12:45;10.73;;;6.47;;
20721;SDS011;10522;52.198;9.890;2023-02-14T08:15:23;12.00;;;6.90;;
20721;SDS011;10522;52.198;9.890;2023-02-14T08:18:11;13.47;;;7.07;;
20721;SDS011;10522;52.198;9.890;2023-02-14T08:20:38;15.90;;;7.17;;
20721;SDS011;10522;52.198;9.890;2023-02-14T08:23:03;10.60;;;6.97;;
20721;SDS011;10522;52.198;9.890;2023-02-14T08:25:29;14.07;;;7.23;;
20721;SDS011;10522;52.198;9.890;2023-02-14T08:27:55;12.90;;;7.23;;
20721;SDS011;10522;52.198;9.890;2023-02-14T08:30:20;13.93;;;7.80;;
20721;SDS011;10522;52.198;9.890;2023-02-14T08:32:46;11.20;;;6.83;;
20721;SDS011;10522;52.198;9.890;2023-02-14T08:35:12;14.27;;;7.53;;
20721;SDS011;10522;52.198;9.890;2023-02-14T08:37:38;12.50;;;7.40;;
20721;SDS011;10522;52.198;9.890;2023-02-14T08:40:04;11.63;;;7.87;;
20721;SDS011;10522;52.198;9.890;2023-02-14T08:42:30;15.70;;;8.23;;
20721;SDS011;10522;52.198;9.890;2023-02-14T08:44:56;14.03;;;8.30;;
20721;SDS011;10522;52.198;9.890;2023-02-14T08:47:21;13.37;;;8.10;;
20721;SDS011;10522;52.198;9.890;2023-02-14T08:49:47;13.27;;;8.13;;
20721;SDS011;10522;52.198;9.890;2023-02-14T08:52:13;15.47;;;8.73;;
20721;SDS011;10522;52.198;9.890;2023-02-14T08:54:38;14.50;;;8.07;;
20721;SDS011;10522;52.198;9.890;2023-02-14T08:57:04;15.67;;;8.17;;
20721;SDS011;10522;52.198;9.890;2023-02-14T08:59:29;14.60;;;8.67;;
20721;SDS011;10522;52.198;9.890;2023-02-14T09:01:55;15.10;;;9.10;;
20721;SDS011;10522;52.198;9.890;2023-02-14T09:04:20;17.30;;;9.57;;
20721;SDS011;10522;52.198;9.890;2023-02-14T09:06:46;14.60;;;9.40;;
20721;SDS011;10522;52.198;9.890;2023-02-14T09:09:11;17.50;;;8.97;;
20721;SDS011;10522;52.198;9.890;2023-02-14T09:11:37;17.80;;;10.00;;
20721;SDS011;10522;52.198;9.890;2023-02-14T09:14:03;16.00;;;9.37;;
20721;SDS011;10522;52.198;9.890;2023-02-14T09:16:28;15.63;;;9.50;;
20721;SDS011;10522;52.198;9.890;2023-02-14T09:18:54;14.80;;;8.93;;
20721;SDS011;10522;52.198;9.890;2023-02-14T09:21:21;14.93;;;9.33;;
20721;SDS011;10522;52.198;9.890;2023-02-14T09:23:52;16.77;;;9.83;;
20721;SDS011;10522;52.198;9.890;2023-02-14T09:26:18;17.50;;;9.93;;
20721;SDS011;10522;52.198;9.890;2023-02-14T09:29:00;16.73;;;8.90;;
20721;SDS011;10522;52.198;9.890;2023-02-14T09:31:26;15.07;;;8.93;;
20721;SDS011;10522;52.198;9.890;2023-02-14T09:33:52;14.60;;;8.57;;
20721;SDS011;10522;52.198;9.890;2023-02-14T09:36:18;18.77;;;9.43;;
20721;SDS011;10522;52.198;9.890;2023-02-14T09:39:02;12.63;;;8.27;;
20721;SDS011;10522;52.198;9.890;2023-02-14T09:43:58;13.63;;;8.93;;
20721;SDS011;10522;52.198;9.890;2023-02-14T09:46:41;16.37;;;9.80;;
20721;SDS011;10522;52.198;9.890;2023-02-14T09:49:13;16.03;;;10.07;;
20721;SDS011;10522;52.198;9.890;2023-02-14T09:51:46;17.07;;;9.63;;
20721;SDS011;10522;52.198;9.890;2023-02-14T09:54:16;15.97;;;9.63;;
20721;SDS011;10522;52.198;9.890;2023-02-14T10:02:29;16.60;;;9.50;;
20721;SDS011;10522;52.198;9.890;2023-02-14T10:11:18;16.93;;;9.03;;
20721;SDS011;10522;52.198;9.890;2023-02-14T10:13:58;13.07;;;8.13;;
20721;SDS011;10522;52.198;9.890;2023-02-14T10:16:31;14.97;;;9.27;;
20721;SDS011;10522;52.198;9.890;2023-02-14T10:19:27;13.47;;;8.57;;
20721;SDS011;10522;52.198;9.890;2023-02-14T10:22:01;16.83;;;9.00;;
20721;SDS011;10522;52.198;9.890;2023-02-14T10:24:55;14.27;;;8.83;;
20721;SDS011;10522;52.198;9.890;2023-02-14T10:27:32;15.53;;;9.17;;
20721;SDS011;10522;52.198;9.890;2023-02-14T10:30:27;12.67;;;8.47;;
20721;SDS011;10522;52.198;9.890;2023-02-14T10:33:13;13.77;;;8.37;;
20721;SDS011;10522;52.198;9.890;2023-02-14T10:35:48;13.27;;;8.83;;
20721;SDS011;10522;52.198;9.890;2023-02-14T10:44:08;12.50;;;7.80;;
20721;SDS011;10522;52.198;9.890;2023-02-14T10:54:51;13.63;;;8.27;;
20721;SDS011;10522;52.198;9.890;2023-02-14T10:57:22;12.00;;;8.20;;
20721;SDS011;10522;52.198;9.890;2023-02-14T11:02:30;13.93;;;8.60;;
20721;SDS011;10522;52.198;9.890;2023-02-14T11:04:59;11.17;;;6.77;;
20721;SDS011;10522;52.198;9.890;2023-02-14T11:07:28;14.17;;;8.37;;
20721;SDS011;10522;52.198;9.890;2023-02-14T11:09:54;13.83;;;8.53;;
20721;SDS011;10522;52.198;9.890;2023-02-14T11:12:31;14.07;;;7.33;;
20721;SDS011;10522;52.198;9.890;2023-02-14T11:15:10;11.17;;;7.90;;
20721;SDS011;10522;52.198;9.890;2023-02-14T11:17:38;10.97;;;7.67;;
20721;SDS011;10522;52.198;9.890;2023-02-14T11:22:51;11.13;;;7.67;;
20721;SDS011;10522;52.198;9.890;2023-02-14T11:25:28;10.73;;;7.03;;
20721;SDS011;10522;52.198;9.890;2023-02-14T11:28:03;12.60;;;7.97;;
20721;SDS011;10522;52.198;9.890;2023-02-14T11:30:39;12.27;;;8.00;;
20721;SDS011;10522;52.198;9.890;2023-02-14T11:35:57;13.80;;;7.80;;
20721;SDS011;10522;52.198;9.890;2023-02-14T11:38:28;12.50;;;7.73;;
20721;SDS011;10522;52.198;9.890;2023-02-14T11:41:00;11.13;;;7.10;;
20721;SDS011;10522;52.198;9.890;2023-02-14T11:43:32;11.20;;;7.53;;
20721;SDS011;10522;52.198;9.890;2023-02-14T11:46:04;11.33;;;7.90;;
20721;SDS011;10522;52.198;9.890;2023-02-14T11:49:00;12.57;;;7.70;;
20721;SDS011;10522;52.198;9.890;2023-02-14T11:51:35;13.10;;;7.37;;
20721;SDS011;10522;52.198;9.890;2023-02-14T11:54:10;12.10;;;7.43;;
20721;SDS011;10522;52.198;9.890;2023-02-14T11:56:50;9.07;;;6.50;;
20721;SDS011;10522;52.198;9.890;2023-02-14T11:59:31;12.60;;;7.37;;
20721;SDS011;10522;52.198;9.890;2023-02-14T12:02:03;11.87;;;7.37;;
20721;SDS011;10522;52.198;9.890;2023-02-14T12:04:50;10.57;;;7.20;;
20721;SDS011;10522;52.198;9.890;2023-02-14T12:07:27;11.87;;;7.43;;
20721;SDS011;10522;52.198;9.890;2023-02-14T12:10:25;12.27;;;8.10;;
20721;SDS011;10522;52.198;9.890;2023-02-14T12:13:00;13.43;;;7.57;;
20721;SDS011;10522;52.198;9.890;2023-02-14T12:15:36;13.07;;;7.20;;
20721;SDS011;10522;52.198;9.890;2023-02-14T12:20:39;10.67;;;7.30;;
20721;SDS011;10522;52.198;9.890;2023-02-14T12:23:17;13.13;;;8.37;;
20721;SDS011;10522;52.198;9.890;2023-02-14T12:31:23;13.70;;;7.90;;
20721;SDS011;10522;52.198;9.890;2023-02-14T12:33:49;17.50;;;9.07;;
20721;SDS011;10522;52.198;9.890;2023-02-14T12:36:17;14.33;;;9.80;;
20721;SDS011;10522;52.198;9.890;2023-02-14T12:51:13;11.90;;;8.10;;
20721;SDS011;10522;52.198;9.890;2023-02-14T13:02:43;12.27;;;8.17;;
20721;SDS011;10522;52.198;9.890;2023-02-14T13:10:26;13.10;;;8.60;;
20721;SDS011;10522;52.198;9.890;2023-02-14T13:21:38;11.47;;;8.63;;
20721;SDS011;10522;52.198;9.890;2023-02-14T13:24:17;12.23;;;7.80;;
20721;SDS011;10522;52.198;9.890;2023-02-14T13:26:49;12.43;;;7.77;;
20721;SDS011;10522;52.198;9.890;2023-02-14T13:29:20;11.63;;;7.33;;
20721;SDS011;10522;52.198;9.890;2023-02-14T13:31:48;11.80;;;7.87;;
20721;SDS011;10522;52.198;9.890;2023-02-14T13:34:22;11.17;;;6.77;;
20721;SDS011;10522;52.198;9.890;2023-02-14T13:36:53;10.23;;;5.87;;
20721;SDS011;10522;52.198;9.890;2023-02-14T13:39:31;7.60;;;5.17;;
20721;SDS011;10522;52.198;9.890;2023-02-14T13:42:03;6.93;;;3.87;;
20721;SDS011;10522;52.198;9.890;2023-02-14T13:45:28;4.23;;;2.00;;
20721;SDS011;10522;52.198;9.890;2023-02-14T13:48:08;3.70;;;2.20;;
20721;SDS011;10522;52.198;9.890;2023-02-14T13:50:38;4.33;;;2.60;;
20721;SDS011;10522;52.198;9.890;2023-02-14T13:53:34;4.67;;;2.13;;
20721;SDS011;10522;52.198;9.890;2023-02-14T13:58:47;3.33;;;2.23;;
20721;SDS011;10522;52.198;9.890;2023-02-14T14:17:42;1.87;;;1.60;;
20721;SDS011;10522;52.198;9.890;2023-02-14T14:22:48;3.57;;;1.60;;
20721;SDS011;10522;52.198;9.890;2023-02-14T14:25:36;2.20;;;1.67;;
20721;SDS011;10522;52.198;9.890;2023-02-14T14:28:09;2.37;;;1.60;;
20721;SDS011;10522;52.198;9.890;2023-02-14T14:30:55;2.70;;;1.40;;
20721;SDS011;10522;52.198;9.890;2023-02-14T14:33:26;2.83;;;1.80;;
20721;SDS011;10522;52.198;9.890;2023-02-14T14:38:25;2.13;;;1.50;;
20721;SDS011;10522;52.198;9.890;2023-02-14T14:46:21;3.40;;;1.30;;
20721;SDS011;10522;52.198;9.890;2023-02-14T14:49:01;4.53;;;1.60;;
20721;SDS011;10522;52.198;9.890;2023-02-14T14:51:49;4.47;;;1.40;;
20721;SDS011;10522;52.198;9.890;2023-02-14T14:54:33;1.87;;;1.30;;
20721;SDS011;10522;52.198;9.890;2023-02-14T14:57:38;2.70;;;1.37;;
20721;SDS011;10522;52.198;9.890;2023-02-14T15:00:35;1.70;;;1.20;;
20721;SDS011;10522;52.198;9.890;2023-02-14T15:03:24;2.87;;;1.30;;
20721;SDS011;10522;52.198;9.890;2023-02-14T15:18:52;2.80;;;1.53;;
20721;SDS011;10522;52.198;9.890;2023-02-14T15:21:39;2.67;;;1.47;;
20721;SDS011;10522;52.198;9.890;2023-02-14T15:24:09;3.47;;;1.70;;
20721;SDS011;10522;52.198;9.890;2023-02-14T15:26:38;1.40;;;1.30;;
20721;SDS011;10522;52.198;9.890;2023-02-14T15:29:17;1.40;;;1.30;;
20721;SDS011;10522;52.198;9.890;2023-02-14T15:31:58;1.80;;;1.43;;
20721;SDS011;10522;52.198;9.890;2023-02-14T15:34:29;2.40;;;2.10;;
20721;SDS011;10522;52.198;9.890;2023-02-14T15:36:57;6.57;;;4.10;;
20721;SDS011;10522;52.198;9.890;2023-02-14T15:39:31;8.23;;;5.10;;
20721;SDS011;10522;52.198;9.890;2023-02-14T15:42:00;11.17;;;5.47;;
20721;SDS011;10522;52.198;9.890;2023-02-14T15:44:26;9.17;;;6.00;;
20721;SDS011;10522;52.198;9.890;2023-02-14T15:46:54;8.70;;;5.47;;
20721;SDS011;10522;52.198;9.890;2023-02-14T15:49:29;8.97;;;6.00;;
20721;SDS011;10522;52.198;9.890;2023-02-14T15:52:02;10.00;;;5.47;;
20721;SDS011;10522;52.198;9.890;2023-02-14T15:57:03;7.33;;;5.83;;
20721;SDS011;10522;52.198;9.890;2023-02-14T15:59:36;9.50;;;5.67;;
20721;SDS011;10522;52.198;9.890;2023-02-14T16:05:07;9.17;;;5.80;;
20721;SDS011;10522;52.198;9.890;2023-02-14T16:13:32;11.30;;;6.17;;
20721;SDS011;10522;52.198;9.890;2023-02-14T16:16:10;10.43;;;6.07;;
20721;SDS011;10522;52.198;9.890;2023-02-14T16:19:35;11.20;;;7.07;;
20721;SDS011;10522;52.198;9.890;2023-02-14T16:22:10;8.67;;;6.17;;
20721;SDS011;10522;52.198;9.890;2023-02-14T16:24:37;10.10;;;7.10;;
20721;SDS011;10522;52.198;9.890;2023-02-14T16:27:04;10.53;;;7.30;;
20721;SDS011;10522;52.198;9.890;2023-02-14T16:29:34;11.13;;;7.93;;
20721;SDS011;10522;52.198;9.890;2023-02-14T16:32:07;11.07;;;7.73;;
20721;SDS011;10522;52.198;9.890;2023-02-14T16:34:41;10.50;;;7.33;;
20721;SDS011;10522;52.198;9.890;2023-02-14T16:37:07;10.77;;;7.60;;
20721;SDS011;10522;52.198;9.890;2023-02-14T16:39:42;11.80;;;8.27;;
20721;SDS011;10522;52.198;9.890;2023-02-14T16:42:12;12.23;;;8.07;;
20721;SDS011;10522;52.198;9.890;2023-02-14T16:44:40;12.03;;;8.57;;
20721;SDS011;10522;52.198;9.890;2023-02-14T16:47:09;13.63;;;8.57;;
20721;SDS011;10522;52.198;9.890;2023-02-14T16:49:38;12.57;;;7.63;;
20721;SDS011;10522;52.198;9.890;2023-02-14T16:52:05;15.53;;;8.57;;
20721;SDS011;10522;52.198;9.890;2023-02-14T16:54:34;13.57;;;8.77;;
20721;SDS011;10522;52.198;9.890;2023-02-14T16:57:02;10.90;;;7.30;;
20721;SDS011;10522;52.198;9.890;2023-02-14T16:59:28;15.83;;;10.13;;
20721;SDS011;10522;52.198;9.890;2023-02-14T17:01:58;12.60;;;9.33;;
20721;SDS011;10522;52.198;9.890;2023-02-14T17:04:24;13.93;;;9.00;;
20721;SDS011;10522;52.198;9.890;2023-02-14T17:06:51;17.17;;;9.50;;
20721;SDS011;10522;52.198;9.890;2023-02-14T17:09:20;14.47;;;8.93;;
20721;SDS011;10522;52.198;9.890;2023-02-14T17:11:49;13.77;;;9.63;;
20721;SDS011;10522;52.198;9.890;2023-02-14T17:14:19;16.20;;;9.63;;
20721;SDS011;10522;52.198;9.890;2023-02-14T17:16:48;13.80;;;9.23;;
20721;SDS011;10522;52.198;9.890;2023-02-14T17:19:15;15.37;;;10.30;;
20721;SDS011;10522;52.198;9.890;2023-02-14T17:21:41;17.03;;;10.57;;
20721;SDS011;10522;52.198;9.890;2023-02-14T17:24:07;15.73;;;9.63;;
20721;SDS011;10522;52.198;9.890;2023-02-14T17:26:33;15.63;;;9.90;;
20721;SDS011;10522;52.198;9.890;2023-02-14T17:28:59;13.80;;;9.30;;
20721;SDS011;10522;52.198;9.890;2023-02-14T17:31:25;16.50;;;9.77;;
20721;SDS011;10522;52.198;9.890;2023-02-14T17:33:52;20.57;;;11.20;;
20721;SDS011;10522;52.198;9.890;2023-02-14T17:36:18;17.03;;;10.90;;
20721;SDS011;10522;52.198;9.890;2023-02-14T17:38:44;18.40;;;11.93;;
20721;SDS011;10522;52.198;9.890;2023-02-14T17:41:17;19.03;;;12.53;;
20721;SDS011;10522;52.198;9.890;2023-02-14T17:43:45;16.47;;;11.00;;
20721;SDS011;10522;52.198;9.890;2023-02-14T17:46:12;18.10;;;11.87;;
20721;SDS011;10522;52.198;9.890;2023-02-14T17:48:38;16.50;;;10.80;;
20721;SDS011;10522;52.198;9.890;2023-02-14T17:51:05;16.50;;;10.43;;
20721;SDS011;10522;52.198;9.890;2023-02-14T17:53:32;17.17;;;10.70;;